sensor_id;sensor_type;location;lat;lon;timestamp;P1;durP1;ratioP1;P2;durP2;ratioP2
30370;SDS011;17164;48.590;11.410;2022-08-19T00:00:23;20.63;;;18.37;;
30370;SDS011;17164;48.590;11.410;2022-08-19T00:02:50;21.43;;;18.67;;
30370;SDS011;17164;48.590;11.410;2022-08-19T00:05:17;22.60;;;19.07;;
30370;SDS011;17164;48.590;11.410;2022-08-19T00:07:44;21.53;;;18.80;;
30370;SDS011;17164;48.590;11.410;2022-08-19T00:10:11;22.97;;;18.70;;
30370;SDS011;17164;48.590;11.410;2022-08-19T00:12:39;20.13;;;17.97;;
30370;SDS011;17164;48.590;11.410;2022-08-19T00:15:07;19.47;;;16.73;;
30370;SDS011;17164;48.590;11.410;2022-08-19T00:17:38;20.47;;;17.60;;
30370;SDS011;17164;48.590;11.410;2022-08-19T00:20:05;20.03;;;17.87;;
30370;SDS011;17164;48.590;11.410;2022-08-19T00:22:32;21.47;;;16.77;;
30370;SDS011;17164;48.590;11.410;2022-08-19T00:24:58;20.87;;;16.37;;
30370;SDS011;17164;48.590;11.410;2022-08-19T00:27:24;18.43;;;16.37;;
30370;SDS011;17164;48.590;11.410;2022-08-19T00:29:50;21.10;;;17.83;;
30370;SDS011;17164;48.590;11.410;2022-08-19T00:32:15;20.00;;;17.73;;
30370;SDS011;17164;48.590;11.410;2022-08-19T00:34:41;19.97;;;17.57;;
30370;SDS011;17164;48.590;11.410;2022-08-19T00:37:08;18.93;;;16.73;;
30370;SDS011;17164;48.590;11.410;2022-08-19T00:39:33;18.80;;;16.60;;
30370;SDS011;17164;48.590;11.410;2022-08-19T00:41:59;19.13;;;17.13;;
30370;SDS011;17164;48.590;11.410;2022-08-19T00:44:26;19.43;;;17.33;;
30370;SDS011;17164;48.590;11.410;2022-08-19T00:46:54;20.07;;;16.93;;
30370;SDS011;17164;48.590;11.410;2022-08-19T00:49:43;18.00;;;15.50;;
30370;SDS011;17164;48.590;11.410;2022-08-19T00:52:16;17.30;;;14.77;;
30370;SDS011;17164;48.590;11.410;2022-08-19T00:55:05;16.87;;;15.00;;
30370;SDS011;17164;48.590;11.410;2022-08-19T00:57:36;18.37;;;16.33;;
30370;SDS011;17164;48.590;11.410;2022-08-19T01:00:06;17.83;;;15.53;;
30370;SDS011;17164;48.590;11.410;2022-08-19T01:02:36;19.17;;;16.70;;
30370;SDS011;17164;48.590;11.410;2022-08-19T01:05:05;18.37;;;15.40;;
30370;SDS011;17164;48.590;11.410;2022-08-19T01:07:34;19.80;;;16.67;;
30370;SDS011;17164;48.590;11.410;2022-08-19T01:10:02;18.03;;;14.47;;
30370;SDS011;17164;48.590;11.410;2022-08-19T01:12:28;22.07;;;17.30;;
30370;SDS011;17164;48.590;11.410;2022-08-19T01:14:55;19.60;;;16.53;;
30370;SDS011;17164;48.590;11.410;2022-08-19T01:17:21;19.53;;;16.70;;
30370;SDS011;17164;48.590;11.410;2022-08-19T01:19:47;18.47;;;16.47;;
30370;SDS011;17164;48.590;11.410;2022-08-19T01:24:48;18.73;;;15.83;;
30370;SDS011;17164;48.590;11.410;2022-08-19T01:27:14;16.63;;;14.60;;
30370;SDS011;17164;48.590;11.410;2022-08-19T01:29:40;17.07;;;14.13;;
30370;SDS011;17164;48.590;11.410;2022-08-19T01:32:09;16.07;;;14.30;;
30370;SDS011;17164;48.590;11.410;2022-08-19T01:34:38;18.20;;;14.27;;
30370;SDS011;17164;48.590;11.410;2022-08-19T01:37:08;16.30;;;14.60;;
30370;SDS011;17164;48.590;11.410;2022-08-19T01:39:36;15.50;;;13.83;;
30370;SDS011;17164;48.590;11.410;2022-08-19T01:42:03;17.10;;;14.17;;
30370;SDS011;17164;48.590;11.410;2022-08-19T01:44:29;17.37;;;14.47;;
30370;SDS011;17164;48.590;11.410;2022-08-19T01:46:55;15.67;;;12.57;;
30370;SDS011;17164;48.590;11.410;2022-08-19T01:49:21;14.73;;;12.80;;
30370;SDS011;17164;48.590;11.410;2022-08-19T01:51:49;15.17;;;12.17;;
30370;SDS011;17164;48.590;11.410;2022-08-19T01:54:15;17.37;;;12.33;;
30370;SDS011;17164;48.590;11.410;2022-08-19T01:56:42;14.33;;;11.90;;
30370;SDS011;17164;48.590;11.410;2022-08-19T01:59:09;14.23;;;11.63;;
30370;SDS011;17164;48.590;11.410;2022-08-19T02:01:40;12.63;;;11.00;;
30370;SDS011;17164;48.590;11.410;2022-08-19T02:04:05;13.70;;;10.07;;
30370;SDS011;17164;48.590;11.410;2022-08-19T02:06:32;12.27;;;8.97;;
30370;SDS011;17164;48.590;11.410;2022-08-19T02:08:58;12.57;;;9.73;;
30370;SDS011;17164;48.590;11.410;2022-08-19T02:11:25;11.93;;;9.73;;
30370;SDS011;17164;48.590;11.410;2022-08-19T02:13:54;11.43;;;9.80;;
30370;SDS011;17164;48.590;11.410;2022-08-19T02:16:20;11.47;;;9.23;;
30370;SDS011;17164;48.590;11.410;2022-08-19T02:18:46;13.67;;;9.93;;
30370;SDS011;17164;48.590;11.410;2022-08-19T02:21:19;10.97;;;8.53;;
30370;SDS011;17164;48.590;11.410;2022-08-19T02:23:46;11.80;;;9.03;;
30370;SDS011;17164;48.590;11.410;2022-08-19T02:26:13;11.90;;;9.73;;
30370;SDS011;17164;48.590;11.410;2022-08-19T02:28:39;13.30;;;9.37;;
30370;SDS011;17164;48.590;11.410;2022-08-19T02:31:12;11.13;;;8.90;;
30370;SDS011;17164;48.590;11.410;2022-08-19T02:33:42;10.67;;;9.10;;
30370;SDS011;17164;48.590;11.410;2022-08-19T02:36:09;14.37;;;9.63;;
30370;SDS011;17164;48.590;11.410;2022-08-19T02:38:36;12.00;;;9.57;;
30370;SDS011;17164;48.590;11.410;2022-08-19T02:41:04;10.03;;;8.40;;
30370;SDS011;17164;48.590;11.410;2022-08-19T02:43:42;11.80;;;8.67;;
30370;SDS011;17164;48.590;11.410;2022-08-19T02:46:11;14.77;;;9.80;;
30370;SDS011;17164;48.590;11.410;2022-08-19T02:48:46;12.17;;;8.80;;
30370;SDS011;17164;48.590;11.410;2022-08-19T02:51:20;12.03;;;9.10;;
30370;SDS011;17164;48.590;11.410;2022-08-19T02:53:47;11.63;;;10.10;;
30370;SDS011;17164;48.590;11.410;2022-08-19T02:56:13;17.47;;;11.13;;
30370;SDS011;17164;48.590;11.410;2022-08-19T02:58:39;13.60;;;10.30;;
30370;SDS011;17164;48.590;11.410;2022-08-19T03:01:05;12.60;;;9.77;;
30370;SDS011;17164;48.590;11.410;2022-08-19T03:03:31;13.57;;;10.27;;
30370;SDS011;17164;48.590;11.410;2022-08-19T03:06:10;12.97;;;9.27;;
30370;SDS011;17164;48.590;11.410;2022-08-19T03:08:39;14.50;;;9.83;;
30370;SDS011;17164;48.590;11.410;2022-08-19T03:11:12;11.50;;;9.00;;
30370;SDS011;17164;48.590;11.410;2022-08-19T03:13:39;12.27;;;9.50;;
30370;SDS011;17164;48.590;11.410;2022-08-19T03:16:05;12.80;;;9.60;;
30370;SDS011;17164;48.590;11.410;2022-08-19T03:18:31;12.00;;;9.70;;
30370;SDS011;17164;48.590;11.410;2022-08-19T03:20:56;14.10;;;9.73;;
30370;SDS011;17164;48.590;11.410;2022-08-19T03:23:22;12.10;;;8.90;;
30370;SDS011;17164;48.590;11.410;2022-08-19T03:25:48;15.87;;;9.13;;
30370;SDS011;17164;48.590;11.410;2022-08-19T03:28:16;11.47;;;8.30;;
30370;SDS011;17164;48.590;11.410;2022-08-19T03:30:42;10.80;;;8.93;;
30370;SDS011;17164;48.590;11.410;2022-08-19T03:33:21;11.27;;;8.27;;
30370;SDS011;17164;48.590;11.410;2022-08-19T03:35:47;10.67;;;8.50;;
30370;SDS011;17164;48.590;11.410;2022-08-19T03:38:28;14.67;;;8.83;;
30370;SDS011;17164;48.590;11.410;2022-08-19T03:40:54;11.13;;;9.27;;
30370;SDS011;17164;48.590;11.410;2022-08-19T03:43:20;12.00;;;9.50;;
30370;SDS011;17164;48.590;11.410;2022-08-19T03:45:46;10.97;;;8.40;;
30370;SDS011;17164;48.590;11.410;2022-08-19T03:48:13;13.93;;;9.23;;
30370;SDS011;17164;48.590;11.410;2022-08-19T03:50:41;13.73;;;10.00;;
30370;SDS011;17164;48.590;11.410;2022-08-19T03:53:07;12.27;;;10.00;;
30370;SDS011;17164;48.590;11.410;2022-08-19T03:55:33;13.37;;;9.33;;
30370;SDS011;17164;48.590;11.410;2022-08-19T03:58:03;12.60;;;9.67;;
30370;SDS011;17164;48.590;11.410;2022-08-19T04:00:29;10.53;;;8.97;;
30370;SDS011;17164;48.590;11.410;2022-08-19T04:02:55;13.23;;;9.83;;
30370;SDS011;17164;48.590;11.410;2022-08-19T04:05:20;13.70;;;10.43;;
30370;SDS011;17164;48.590;11.410;2022-08-19T04:07:46;14.13;;;11.77;;
30370;SDS011;17164;48.590;11.410;2022-08-19T04:10:11;13.13;;;9.57;;
30370;SDS011;17164;48.590;11.410;2022-08-19T04:12:37;13.90;;;10.83;;
30370;SDS011;17164;48.590;11.410;2022-08-19T04:15:04;12.60;;;9.70;;
30370;SDS011;17164;48.590;11.410;2022-08-19T04:17:31;11.67;;;9.97;;
30370;SDS011;17164;48.590;11.410;2022-08-19T04:19:57;13.30;;;10.77;;
30370;SDS011;17164;48.590;11.410;2022-08-19T04:22:23;11.80;;;9.73;;
30370;SDS011;17164;48.590;11.410;2022-08-19T04:24:48;14.77;;;9.43;;
30370;SDS011;17164;48.590;11.410;2022-08-19T04:27:14;14.23;;;11.50;;
30370;SDS011;17164;48.590;11.410;2022-08-19T04:29:41;15.50;;;11.90;;
30370;SDS011;17164;48.590;11.410;2022-08-19T04:32:07;17.00;;;13.60;;
30370;SDS011;17164;48.590;11.410;2022-08-19T04:34:32;18.90;;;14.23;;
30370;SDS011;17164;48.590;11.410;2022-08-19T04:36:58;17.23;;;14.57;;
30370;SDS011;17164;48.590;11.410;2022-08-19T04:39:26;18.63;;;14.50;;
30370;SDS011;17164;48.590;11.410;2022-08-19T04:42:12;20.37;;;14.97;;
30370;SDS011;17164;48.590;11.410;2022-08-19T04:44:57;21.43;;;16.10;;
30370;SDS011;17164;48.590;11.410;2022-08-19T04:47:23;19.10;;;14.43;;
30370;SDS011;17164;48.590;11.410;2022-08-19T04:49:49;18.23;;;13.93;;
30370;SDS011;17164;48.590;11.410;2022-08-19T04:52:15;21.40;;;15.07;;
30370;SDS011;17164;48.590;11.410;2022-08-19T04:54:40;20.80;;;16.17;;
30370;SDS011;17164;48.590;11.410;2022-08-19T04:57:07;17.93;;;14.53;;
30370;SDS011;17164;48.590;11.410;2022-08-19T04:59:35;17.60;;;14.43;;
30370;SDS011;17164;48.590;11.410;2022-08-19T05:02:02;20.47;;;15.00;;
30370;SDS011;17164;48.590;11.410;2022-08-19T05:04:29;18.23;;;13.70;;
30370;SDS011;17164;48.590;11.410;2022-08-19T05:06:56;18.23;;;14.03;;
30370;SDS011;17164;48.590;11.410;2022-08-19T05:09:22;19.43;;;15.73;;
30370;SDS011;17164;48.590;11.410;2022-08-19T05:11:47;18.27;;;14.87;;
30370;SDS011;17164;48.590;11.410;2022-08-19T05:14:15;20.17;;;16.67;;
30370;SDS011;17164;48.590;11.410;2022-08-19T05:16:41;22.73;;;17.07;;
30370;SDS011;17164;48.590;11.410;2022-08-19T05:19:07;24.37;;;18.27;;
30370;SDS011;17164;48.590;11.410;2022-08-19T05:21:51;21.07;;;17.23;;
30370;SDS011;17164;48.590;11.410;2022-08-19T05:24:35;23.00;;;18.10;;
30370;SDS011;17164;48.590;11.410;2022-08-19T05:27:01;21.87;;;17.10;;
30370;SDS011;17164;48.590;11.410;2022-08-19T05:29:30;22.47;;;17.37;;
30370;SDS011;17164;48.590;11.410;2022-08-19T05:31:57;23.57;;;18.57;;
30370;SDS011;17164;48.590;11.410;2022-08-19T05:34:24;24.60;;;18.60;;
30370;SDS011;17164;48.590;11.410;2022-08-19T05:36:53;26.20;;;20.73;;
30370;SDS011;17164;48.590;11.410;2022-08-19T05:39:21;24.50;;;19.50;;
30370;SDS011;17164;48.590;11.410;2022-08-19T05:41:58;26.33;;;19.20;;
30370;SDS011;17164;48.590;11.410;2022-08-19T05:44:27;25.87;;;19.73;;
30370;SDS011;17164;48.590;11.410;2022-08-19T05:46:58;23.90;;;18.70;;
30370;SDS011;17164;48.590;11.410;2022-08-19T05:49:25;26.80;;;21.40;;
30370;SDS011;17164;48.590;11.410;2022-08-19T05:51:52;26.07;;;20.80;;
30370;SDS011;17164;48.590;11.410;2022-08-19T05:54:20;26.80;;;19.33;;
30370;SDS011;17164;48.590;11.410;2022-08-19T05:56:48;25.27;;;19.63;;
30370;SDS011;17164;48.590;11.410;2022-08-19T05:59:15;26.00;;;19.80;;
30370;SDS011;17164;48.590;11.410;2022-08-19T06:01:44;25.87;;;19.07;;
30370;SDS011;17164;48.590;11.410;2022-08-19T06:04:11;27.80;;;19.70;;
30370;SDS011;17164;48.590;11.410;2022-08-19T06:06:43;26.13;;;20.43;;
30370;SDS011;17164;48.590;11.410;2022-08-19T06:09:13;24.60;;;20.27;;
30370;SDS011;17164;48.590;11.410;2022-08-19T06:14:06;24.90;;;19.97;;
30370;SDS011;17164;48.590;11.410;2022-08-19T06:16:34;25.97;;;20.03;;
30370;SDS011;17164;48.590;11.410;2022-08-19T06:19:04;29.30;;;21.93;;
30370;SDS011;17164;48.590;11.410;2022-08-19T06:21:32;25.97;;;20.07;;
30370;SDS011;17164;48.590;11.410;2022-08-19T06:24:01;27.57;;;20.57;;
30370;SDS011;17164;48.590;11.410;2022-08-19T06:26:28;26.70;;;20.67;;
30370;SDS011;17164;48.590;11.410;2022-08-19T06:28:54;28.13;;;20.23;;
30370;SDS011;17164;48.590;11.410;2022-08-19T06:31:21;27.90;;;21.13;;
30370;SDS011;17164;48.590;11.410;2022-08-19T06:33:49;32.57;;;23.83;;
30370;SDS011;17164;48.590;11.410;2022-08-19T06:36:26;25.10;;;20.37;;
30370;SDS011;17164;48.590;11.410;2022-08-19T06:38:56;30.03;;;22.57;;
30370;SDS011;17164;48.590;11.410;2022-08-19T06:41:24;27.67;;;21.83;;
30370;SDS011;17164;48.590;11.410;2022-08-19T06:43:50;30.20;;;21.77;;
30370;SDS011;17164;48.590;11.410;2022-08-19T06:46:17;28.77;;;22.30;;
30370;SDS011;17164;48.590;11.410;2022-08-19T06:48:44;27.77;;;23.50;;
30370;SDS011;17164;48.590;11.410;2022-08-19T06:51:11;32.23;;;22.00;;
30370;SDS011;17164;48.590;11.410;2022-08-19T06:53:37;28.87;;;22.17;;
30370;SDS011;17164;48.590;11.410;2022-08-19T06:56:04;29.30;;;22.57;;
30370;SDS011;17164;48.590;11.410;2022-08-19T06:58:30;27.40;;;21.70;;
30370;SDS011;17164;48.590;11.410;2022-08-19T07:00:59;31.63;;;22.30;;
30370;SDS011;17164;48.590;11.410;2022-08-19T07:03:30;29.97;;;22.77;;
30370;SDS011;17164;48.590;11.410;2022-08-19T07:08:33;30.37;;;22.93;;
30370;SDS011;17164;48.590;11.410;2022-08-19T07:10:59;29.70;;;23.03;;
30370;SDS011;17164;48.590;11.410;2022-08-19T07:13:25;35.37;;;25.40;;
30370;SDS011;17164;48.590;11.410;2022-08-19T07:15:51;27.83;;;23.87;;
30370;SDS011;17164;48.590;11.410;2022-08-19T07:18:18;29.53;;;23.60;;
30370;SDS011;17164;48.590;11.410;2022-08-19T07:20:45;29.77;;;23.60;;
30370;SDS011;17164;48.590;11.410;2022-08-19T07:23:11;30.37;;;23.27;;
30370;SDS011;17164;48.590;11.410;2022-08-19T07:25:37;34.17;;;23.93;;
30370;SDS011;17164;48.590;11.410;2022-08-19T07:28:03;31.57;;;24.17;;
30370;SDS011;17164;48.590;11.410;2022-08-19T07:30:29;29.07;;;22.70;;
30370;SDS011;17164;48.590;11.410;2022-08-19T07:32:55;30.40;;;22.83;;
30370;SDS011;17164;48.590;11.410;2022-08-19T07:35:21;31.17;;;23.90;;
30370;SDS011;17164;48.590;11.410;2022-08-19T07:37:48;33.00;;;24.40;;
30370;SDS011;17164;48.590;11.410;2022-08-19T07:40:14;34.57;;;24.37;;
30370;SDS011;17164;48.590;11.410;2022-08-19T07:42:40;30.87;;;23.67;;
30370;SDS011;17164;48.590;11.410;2022-08-19T07:45:06;32.43;;;24.77;;
30370;SDS011;17164;48.590;11.410;2022-08-19T07:47:32;30.67;;;23.73;;
30370;SDS011;17164;48.590;11.410;2022-08-19T07:49:58;32.80;;;24.43;;
30370;SDS011;17164;48.590;11.410;2022-08-19T07:52:24;31.57;;;23.33;;
30370;SDS011;17164;48.590;11.410;2022-08-19T07:54:50;31.90;;;24.30;;
30370;SDS011;17164;48.590;11.410;2022-08-19T07:57:16;30.40;;;24.77;;
30370;SDS011;17164;48.590;11.410;2022-08-19T07:59:42;28.37;;;23.67;;
30370;SDS011;17164;48.590;11.410;2022-08-19T08:02:08;32.80;;;25.30;;
30370;SDS011;17164;48.590;11.410;2022-08-19T08:04:34;32.90;;;24.60;;
30370;SDS011;17164;48.590;11.410;2022-08-19T08:07:18;29.77;;;24.10;;
30370;SDS011;17164;48.590;11.410;2022-08-19T08:10:03;34.63;;;25.77;;
30370;SDS011;17164;48.590;11.410;2022-08-19T08:12:32;33.80;;;25.83;;
30370;SDS011;17164;48.590;11.410;2022-08-19T08:15:04;32.30;;;25.10;;
30370;SDS011;17164;48.590;11.410;2022-08-19T08:17:32;32.83;;;25.93;;
30370;SDS011;17164;48.590;11.410;2022-08-19T08:19:58;32.43;;;25.00;;
30370;SDS011;17164;48.590;11.410;2022-08-19T08:22:24;34.10;;;26.97;;
30370;SDS011;17164;48.590;11.410;2022-08-19T08:25:10;33.23;;;25.97;;
30370;SDS011;17164;48.590;11.410;2022-08-19T08:27:38;32.30;;;26.43;;
30370;SDS011;17164;48.590;11.410;2022-08-19T08:30:12;33.23;;;26.60;;
30370;SDS011;17164;48.590;11.410;2022-08-19T08:32:46;32.87;;;26.60;;
30370;SDS011;17164;48.590;11.410;2022-08-19T08:35:13;35.40;;;28.13;;
30370;SDS011;17164;48.590;11.410;2022-08-19T08:37:42;34.20;;;27.20;;
30370;SDS011;17164;48.590;11.410;2022-08-19T08:42:53;38.10;;;29.27;;
30370;SDS011;17164;48.590;11.410;2022-08-19T08:45:27;41.10;;;27.93;;
30370;SDS011;17164;48.590;11.410;2022-08-19T08:47:55;33.27;;;27.83;;
30370;SDS011;17164;48.590;11.410;2022-08-19T08:53:06;33.63;;;25.87;;
30370;SDS011;17164;48.590;11.410;2022-08-19T08:55:33;31.83;;;26.63;;
30370;SDS011;17164;48.590;11.410;2022-08-19T08:58:16;38.10;;;27.07;;
30370;SDS011;17164;48.590;11.410;2022-08-19T09:00:52;36.77;;;26.10;;
30370;SDS011;17164;48.590;11.410;2022-08-19T09:03:20;32.53;;;26.13;;
30370;SDS011;17164;48.590;11.410;2022-08-19T09:09:00;34.87;;;24.53;;
30370;SDS011;17164;48.590;11.410;2022-08-19T09:14:35;26.07;;;21.43;;
30370;SDS011;17164;48.590;11.410;2022-08-19T09:17:11;25.97;;;21.17;;
30370;SDS011;17164;48.590;11.410;2022-08-19T09:19:51;23.30;;;20.43;;
30370;SDS011;17164;48.590;11.410;2022-08-19T09:22:17;28.13;;;22.40;;
30370;SDS011;17164;48.590;11.410;2022-08-19T09:24:46;26.37;;;21.80;;
30370;SDS011;17164;48.590;11.410;2022-08-19T09:27:13;27.47;;;22.90;;
30370;SDS011;17164;48.590;11.410;2022-08-19T09:29:39;26.23;;;22.30;;
30370;SDS011;17164;48.590;11.410;2022-08-19T09:32:05;29.83;;;23.77;;
30370;SDS011;17164;48.590;11.410;2022-08-19T09:34:31;28.50;;;23.27;;
30370;SDS011;17164;48.590;11.410;2022-08-19T09:36:57;26.70;;;22.80;;
30370;SDS011;17164;48.590;11.410;2022-08-19T09:39:24;28.77;;;23.90;;
30370;SDS011;17164;48.590;11.410;2022-08-19T09:41:50;28.23;;;23.63;;
30370;SDS011;17164;48.590;11.410;2022-08-19T09:44:16;28.20;;;23.07;;
30370;SDS011;17164;48.590;11.410;2022-08-19T09:46:42;29.50;;;24.03;;
30370;SDS011;17164;48.590;11.410;2022-08-19T09:49:08;31.43;;;25.53;;
30370;SDS011;17164;48.590;11.410;2022-08-19T09:51:33;32.97;;;27.43;;
30370;SDS011;17164;48.590;11.410;2022-08-19T09:54:00;37.37;;;27.27;;
30370;SDS011;17164;48.590;11.410;2022-08-19T09:56:28;33.53;;;28.17;;
30370;SDS011;17164;48.590;11.410;2022-08-19T09:58:56;33.20;;;26.70;;
30370;SDS011;17164;48.590;11.410;2022-08-19T10:01:25;35.30;;;27.87;;
30370;SDS011;17164;48.590;11.410;2022-08-19T10:03:53;38.03;;;29.43;;
30370;SDS011;17164;48.590;11.410;2022-08-19T10:06:21;36.13;;;27.07;;
30370;SDS011;17164;48.590;11.410;2022-08-19T10:08:48;37.23;;;28.80;;
30370;SDS011;17164;48.590;11.410;2022-08-19T10:11:16;33.03;;;27.17;;
30370;SDS011;17164;48.590;11.410;2022-08-19T10:13:43;33.10;;;26.50;;
30370;SDS011;17164;48.590;11.410;2022-08-19T10:16:13;34.13;;;28.30;;
30370;SDS011;17164;48.590;11.410;2022-08-19T10:18:47;38.07;;;28.03;;
30370;SDS011;17164;48.590;11.410;2022-08-19T10:21:15;32.27;;;26.23;;
30370;SDS011;17164;48.590;11.410;2022-08-19T10:23:47;32.67;;;26.10;;
30370;SDS011;17164;48.590;11.410;2022-08-19T10:26:16;32.70;;;27.50;;
30370;SDS011;17164;48.590;11.410;2022-08-19T10:28:44;30.13;;;24.77;;
30370;SDS011;17164;48.590;11.410;2022-08-19T10:31:16;34.13;;;26.90;;
30370;SDS011;17164;48.590;11.410;2022-08-19T10:33:44;31.27;;;24.83;;
30370;SDS011;17164;48.590;11.410;2022-08-19T10:36:11;33.90;;;26.40;;
30370;SDS011;17164;48.590;11.410;2022-08-19T10:38:45;28.90;;;24.33;;
30370;SDS011;17164;48.590;11.410;2022-08-19T10:41:15;31.67;;;25.20;;
30370;SDS011;17164;48.590;11.410;2022-08-19T10:43:42;30.20;;;24.50;;
30370;SDS011;17164;48.590;11.410;2022-08-19T10:46:10;28.67;;;23.93;;
30370;SDS011;17164;48.590;11.410;2022-08-19T10:48:37;27.20;;;23.17;;
30370;SDS011;17164;48.590;11.410;2022-08-19T10:51:03;34.10;;;25.83;;
30370;SDS011;17164;48.590;11.410;2022-08-19T10:53:48;28.43;;;23.60;;
30370;SDS011;17164;48.590;11.410;2022-08-19T10:56:14;31.67;;;24.27;;
30370;SDS011;17164;48.590;11.410;2022-08-19T10:58:58;28.17;;;23.50;;
30370;SDS011;17164;48.590;11.410;2022-08-19T11:01:27;28.63;;;22.90;;
30370;SDS011;17164;48.590;11.410;2022-08-19T11:03:55;30.40;;;23.20;;
30370;SDS011;17164;48.590;11.410;2022-08-19T11:06:22;31.30;;;24.40;;
30370;SDS011;17164;48.590;11.410;2022-08-19T11:08:50;29.33;;;23.93;;
30370;SDS011;17164;48.590;11.410;2022-08-19T11:11:19;30.30;;;23.23;;
30370;SDS011;17164;48.590;11.410;2022-08-19T11:13:46;31.67;;;25.03;;
30370;SDS011;17164;48.590;11.410;2022-08-19T11:16:14;35.43;;;25.70;;
30370;SDS011;17164;48.590;11.410;2022-08-19T11:18:52;33.70;;;24.67;;
30370;SDS011;17164;48.590;11.410;2022-08-19T11:23:57;30.90;;;24.93;;
30370;SDS011;17164;48.590;11.410;2022-08-19T11:26:28;34.77;;;24.60;;
30370;SDS011;17164;48.590;11.410;2022-08-19T11:28:55;29.53;;;22.37;;
30370;SDS011;17164;48.590;11.410;2022-08-19T11:31:22;32.33;;;24.70;;
30370;SDS011;17164;48.590;11.410;2022-08-19T11:33:50;27.53;;;20.00;;
30370;SDS011;17164;48.590;11.410;2022-08-19T11:36:17;14.00;;;10.63;;
30370;SDS011;17164;48.590;11.410;2022-08-19T11:38:45;16.63;;;8.03;;
30370;SDS011;17164;48.590;11.410;2022-08-19T11:41:13;12.07;;;6.70;;
30370;SDS011;17164;48.590;11.410;2022-08-19T11:43:40;20.00;;;9.43;;
30370;SDS011;17164;48.590;11.410;2022-08-19T11:46:07;17.60;;;10.40;;
30370;SDS011;17164;48.590;11.410;2022-08-19T11:48:35;14.63;;;9.40;;
30370;SDS011;17164;48.590;11.410;2022-08-19T11:51:03;11.77;;;8.63;;
30370;SDS011;17164;48.590;11.410;2022-08-19T11:53:34;11.50;;;8.40;;
30370;SDS011;17164;48.590;11.410;2022-08-19T11:56:01;11.50;;;8.63;;
30370;SDS011;17164;48.590;11.410;2022-08-19T11:58:28;10.27;;;7.03;;
30370;SDS011;17164;48.590;11.410;2022-08-19T12:00:54;10.07;;;7.33;;
30370;SDS011;17164;48.590;11.410;2022-08-19T12:03:20;8.27;;;5.67;;
30370;SDS011;17164;48.590;11.410;2022-08-19T12:05:46;9.87;;;5.70;;
30370;SDS011;17164;48.590;11.410;2022-08-19T12:08:12;8.00;;;4.60;;
30370;SDS011;17164;48.590;11.410;2022-08-19T12:10:39;8.20;;;4.67;;
30370;SDS011;17164;48.590;11.410;2022-08-19T12:13:06;10.57;;;5.17;;
30370;SDS011;17164;48.590;11.410;2022-08-19T12:15:36;7.17;;;4.43;;
30370;SDS011;17164;48.590;11.410;2022-08-19T12:18:05;6.00;;;4.30;;
30370;SDS011;17164;48.590;11.410;2022-08-19T12:20:37;6.77;;;4.20;;
30370;SDS011;17164;48.590;11.410;2022-08-19T12:23:05;6.97;;;4.77;;
30370;SDS011;17164;48.590;11.410;2022-08-19T12:25:31;6.33;;;4.33;;
30370;SDS011;17164;48.590;11.410;2022-08-19T12:27:57;7.43;;;5.53;;
30370;SDS011;17164;48.590;11.410;2022-08-19T12:30:23;8.87;;;5.83;;
30370;SDS011;17164;48.590;11.410;2022-08-19T12:32:49;8.03;;;5.33;;
30370;SDS011;17164;48.590;11.410;2022-08-19T12:35:16;7.30;;;5.67;;
30370;SDS011;17164;48.590;11.410;2022-08-19T12:37:45;8.27;;;6.00;;
30370;SDS011;17164;48.590;11.410;2022-08-19T12:40:11;7.80;;;5.57;;
30370;SDS011;17164;48.590;11.410;2022-08-19T12:42:38;7.97;;;5.37;;
30370;SDS011;17164;48.590;11.410;2022-08-19T12:45:10;5.97;;;4.50;;
30370;SDS011;17164;48.590;11.410;2022-08-19T12:47:37;6.00;;;3.80;;
30370;SDS011;17164;48.590;11.410;2022-08-19T12:50:03;5.57;;;3.73;;
30370;SDS011;17164;48.590;11.410;2022-08-19T12:52:33;8.13;;;4.73;;
30370;SDS011;17164;48.590;11.410;2022-08-19T12:55:01;6.03;;;4.60;;
30370;SDS011;17164;48.590;11.410;2022-08-19T12:57:28;4.13;;;3.10;;
30370;SDS011;17164;48.590;11.410;2022-08-19T12:59:57;5.60;;;3.07;;
30370;SDS011;17164;48.590;11.410;2022-08-19T13:02:24;4.90;;;3.43;;
30370;SDS011;17164;48.590;11.410;2022-08-19T13:04:49;5.77;;;4.07;;
30370;SDS011;17164;48.590;11.410;2022-08-19T13:07:15;5.87;;;4.27;;
30370;SDS011;17164;48.590;11.410;2022-08-19T13:09:41;5.90;;;4.30;;
30370;SDS011;17164;48.590;11.410;2022-08-19T13:12:07;6.50;;;4.10;;
30370;SDS011;17164;48.590;11.410;2022-08-19T13:14:38;7.30;;;4.00;;
30370;SDS011;17164;48.590;11.410;2022-08-19T13:17:05;6.60;;;3.80;;
30370;SDS011;17164;48.590;11.410;2022-08-19T13:19:31;4.27;;;3.00;;
30370;SDS011;17164;48.590;11.410;2022-08-19T13:21:57;2.77;;;2.43;;
30370;SDS011;17164;48.590;11.410;2022-08-19T13:24:23;3.43;;;2.43;;
30370;SDS011;17164;48.590;11.410;2022-08-19T13:26:49;3.20;;;2.47;;
30370;SDS011;17164;48.590;11.410;2022-08-19T13:29:15;5.00;;;3.10;;
30370;SDS011;17164;48.590;11.410;2022-08-19T13:31:59;4.13;;;2.80;;
30370;SDS011;17164;48.590;11.410;2022-08-19T13:34:43;3.80;;;2.87;;
30370;SDS011;17164;48.590;11.410;2022-08-19T13:37:11;4.87;;;3.33;;
30370;SDS011;17164;48.590;11.410;2022-08-19T13:39:37;4.33;;;3.13;;
30370;SDS011;17164;48.590;11.410;2022-08-19T13:42:03;4.07;;;3.20;;
30370;SDS011;17164;48.590;11.410;2022-08-19T13:44:29;3.90;;;3.03;;
30370;SDS011;17164;48.590;11.410;2022-08-19T13:46:59;5.57;;;3.87;;
30370;SDS011;17164;48.590;11.410;2022-08-19T13:49:30;6.87;;;4.00;;
30370;SDS011;17164;48.590;11.410;2022-08-19T13:51:56;6.93;;;5.47;;
30370;SDS011;17164;48.590;11.410;2022-08-19T13:54:22;6.13;;;4.60;;
30370;SDS011;17164;48.590;11.410;2022-08-19T13:56:47;5.93;;;4.13;;
30370;SDS011;17164;48.590;11.410;2022-08-19T13:59:13;7.57;;;5.27;;
30370;SDS011;17164;48.590;11.410;2022-08-19T14:01:39;6.43;;;5.40;;
30370;SDS011;17164;48.590;11.410;2022-08-19T14:04:04;8.47;;;5.80;;
30370;SDS011;17164;48.590;11.410;2022-08-19T14:06:31;8.03;;;6.17;;
30370;SDS011;17164;48.590;11.410;2022-08-19T14:08:57;7.23;;;6.00;;
30370;SDS011;17164;48.590;11.410;2022-08-19T14:11:23;7.83;;;5.70;;
30370;SDS011;17164;48.590;11.410;2022-08-19T14:13:49;7.13;;;5.37;;
30370;SDS011;17164;48.590;11.410;2022-08-19T14:16:15;9.00;;;6.70;;
30370;SDS011;17164;48.590;11.410;2022-08-19T14:18:41;9.67;;;6.80;;
30370;SDS011;17164;48.590;11.410;2022-08-19T14:21:08;9.87;;;7.93;;
30370;SDS011;17164;48.590;11.410;2022-08-19T14:23:44;16.77;;;13.20;;
30370;SDS011;17164;48.590;11.410;2022-08-19T14:26:12;17.80;;;14.83;;
30370;SDS011;17164;48.590;11.410;2022-08-19T14:28:40;20.93;;;16.60;;
30370;SDS011;17164;48.590;11.410;2022-08-19T14:31:10;22.20;;;17.10;;
30370;SDS011;17164;48.590;11.410;2022-08-19T14:33:38;23.67;;;18.20;;
30370;SDS011;17164;48.590;11.410;2022-08-19T14:36:05;26.13;;;18.30;;
30370;SDS011;17164;48.590;11.410;2022-08-19T14:38:31;25.13;;;17.03;;
30370;SDS011;17164;48.590;11.410;2022-08-19T14:41:39;22.93;;;17.70;;
30370;SDS011;17164;48.590;11.410;2022-08-19T14:43:47;22.73;;;18.47;;